Time;durP1;ratioP1;P1;durP2;ratioP2;P2;SDS_P1;SDS_P2;PMS_P1;PMS_P2;Temp;Humidity;BMP_temperature;BMP_pressure;BME280_temperature;BME280_humidity;BME280_pressure;Samples;Min_cycle;Max_cycle;Signal;HPM_P1;HPM_P2
2021/06/04 00:00:59;;;;;;;10.48;6.55;;;358.90;2124.80;;;;;;4846073;29;20037;-81
2021/06/04 00:03:26;;;;;;;9.60;5.45;;;358.90;2099.20;;;;;;4847761;29;20033;-79
2021/06/04 00:05:55;;;;;;;8.45;6.25;;;358.90;2099.20;;;;;;4850911;29;20057;-88
2021/06/04 00:08:22;;;;;;;11.63;6.18;;;359.00;2124.80;;;;;;4852336;29;20053;-77
2021/06/04 00:11:01;;;;;;;11.95;7.70;;;359.00;2124.80;;;;;;4852757;29;20029;-82
2021/06/04 00:13:29;;;;;;;10.15;5.95;;;359.10;2176.00;;;;;;4843551;29;20045;-80
2021/06/04 00:16:26;;;;;;;7.40;5.00;;;384.20;2099.20;;;;;;4846185;29;20033;-81
2021/06/04 00:18:52;;;;;;;7.90;5.18;;;384.50;2048.00;;;;;;4841786;29;20471;-83
2021/06/04 00:21:23;;;;;;;7.45;4.80;;;384.70;1996.80;;;;;;4843071;29;20478;-79
2021/06/04 00:23:49;;;;;;;13.07;5.40;;;384.80;1945.60;;;;;;4858426;29;20060;-78
2021/06/04 00:26:16;;;;;;;11.27;5.80;;;384.60;1971.20;;;;;;4842414;29;20037;-78
2021/06/04 00:28:42;;;;;;;8.57;5.10;;;384.80;1971.20;;;;;;4834384;29;20045;-81
2021/06/04 00:31:08;;;;;;;8.73;5.28;;;384.90;1971.20;;;;;;4828959;29;20038;-82
2021/06/04 00:33:36;;;;;;;8.98;5.45;;;409.70;1945.60;;;;;;4840765;29;20071;-79
2021/06/04 00:36:07;;;;;;;9.52;5.13;;;384.90;1920.00;;;;;;4842909;29;20550;-82
2021/06/04 00:38:34;;;;;;;6.75;5.35;;;384.60;1945.60;;;;;;4846094;29;20064;-82
2021/06/04 00:41:06;;;;;;;9.35;5.90;;;384.40;1971.20;;;;;;4863519;29;20041;-83
2021/06/04 00:43:31;;;;;;;10.48;6.25;;;384.40;1996.80;;;;;;4844803;29;20029;-82
2021/06/04 00:45:58;;;;;;;8.40;5.90;;;384.50;1996.80;;;;;;4847293;29;20048;-80
2021/06/04 00:48:25;;;;;;;8.30;5.20;;;384.60;1971.20;;;;;;4847933;29;20482;-78
2021/06/04 00:50:54;;;;;;;9.32;5.53;;;384.50;1971.20;;;;;;4844577;29;20045;-80
2021/06/04 00:53:23;;;;;;;8.15;5.90;;;384.50;1971.20;;;;;;4862685;29;20108;-85
2021/06/04 00:55:50;;;;;;;7.90;6.22;;;384.30;1996.80;;;;;;4846852;29;20042;-81
2021/06/04 00:58:24;;;;;;;9.90;6.25;;;384.10;2048.00;;;;;;4846310;29;20042;-78
2021/06/04 01:00:53;;;;;;;12.80;6.75;;;384.10;2048.00;;;;;;4846217;29;20097;-80
2021/06/04 01:03:22;;;;;;;8.30;6.68;;;384.10;2048.00;;;;;;4845894;29;20033;-79
2021/06/04 01:05:48;;;;;;;10.95;6.75;;;384.10;2048.00;;;;;;4845082;29;20057;-80
2021/06/04 01:08:44;;;;;;;10.80;6.78;;;384.00;2048.00;;;;;;4843060;29;20565;-80
2021/06/04 01:11:22;;;;;;;8.20;6.60;;;359.30;2073.60;;;;;;4848877;29;20048;-78
2021/06/04 01:14:18;;;;;;;11.35;6.95;;;359.20;2073.60;;;;;;4850605;29;20177;-78
2021/06/04 01:17:04;;;;;;;11.52;7.00;;;359.20;2099.20;;;;;;4866288;29;20038;-76
2021/06/04 01:19:47;;;;;;;11.77;7.85;;;359.10;2099.20;;;;;;4847172;29;20086;-81
2021/06/04 01:22:29;;;;;;;9.38;7.07;;;359.00;2150.40;;;;;;4866230;29;20060;-78
2021/06/04 01:25:37;;;;;;;13.45;7.30;;;358.90;2150.40;;;;;;4845783;29;20042;-79
2021/06/04 01:28:20;;;;;;;13.35;7.93;;;359.00;2150.40;;;;;;4821975;29;20042;-84
2021/06/04 01:30:50;;;;;;;;;;;358.80;2227.20;;;;;;4832850;29;20182;-83
2021/06/04 01:36:25;;;;;;;13.75;7.90;;;358.70;2176.00;;;;;;4867298;29;20072;-85
2021/06/04 01:38:53;;;;;;;12.02;7.63;;;358.60;2201.60;;;;;;4846856;29;20042;-86
2021/06/04 01:41:33;;;;;;;;;;;;;;;;;;;;;
2021/06/04 01:44:15;;;;;;;9.73;7.45;;;358.50;2150.40;;;;;;4822023;29;20109;-82
2021/06/04 01:46:46;;;;;;;8.85;6.82;;;333.70;2227.20;;;;;;4847298;29;20041;-84
2021/06/04 01:49:25;;;;;;;14.00;8.07;;;333.70;2201.60;;;;;;4843125;29;20046;-82
2021/06/04 01:52:00;;;;;;;12.45;7.35;;;358.40;2201.60;;;;;;4857571;29;20101;-83
2021/06/04 01:54:32;;;;;;;11.40;8.50;;;333.70;2227.20;;;;;;4853099;29;20137;-84
2021/06/04 01:57:18;;;;;;;12.05;8.35;;;333.70;2252.80;;;;;;4848831;29;20098;-85
2021/06/04 01:59:49;;;;;;;13.60;7.15;;;333.60;2252.80;;;;;;4848566;29;20526;-78
2021/06/04 02:02:15;;;;;;;10.77;7.80;;;333.50;2278.40;;;;;;4848219;29;20142;-82
2021/06/04 02:04:47;;;;;;;13.77;8.70;;;333.50;2278.40;;;;;;4862812;29;20038;-84
2021/06/04 02:07:17;;;;;;;17.73;9.50;;;333.40;2278.40;;;;;;4851187;29;20120;-81
2021/06/04 02:09:44;;;;;;;11.27;8.20;;;333.40;2278.40;;;;;;4866716;29;20085;-83
2021/06/04 02:12:11;;;;;;;10.98;7.97;;;333.30;2304.00;;;;;;4863731;29;20085;-82
2021/06/04 02:14:51;;;;;;;11.30;8.25;;;333.30;2329.60;;;;;;4834510;29;20034;-83
2021/06/04 02:17:40;;;;;;;14.13;7.78;;;333.20;2329.60;;;;;;4830209;29;20494;-83
2021/06/04 02:20:35;;;;;;;13.68;8.32;;;333.20;2329.60;;;;;;4829169;29;20137;-77
2021/06/04 02:23:10;;;;;;;12.82;9.07;;;333.20;2329.60;;;;;;4829377;29;20038;-83
2021/06/04 02:25:45;;;;;;;11.05;7.97;;;333.20;2329.60;;;;;;4845468;29;20397;-82
2021/06/04 02:28:19;;;;;;;18.10;9.35;;;333.00;2329.60;;;;;;4848521;29;20076;-86
2021/06/04 02:30:53;;;;;;;14.55;9.15;;;333.00;2329.60;;;;;;4847640;29;20081;-81
2021/06/04 02:33:26;;;;;;;18.42;10.30;;;332.90;2329.60;;;;;;4849595;29;20037;-82
2021/06/04 02:35:58;;;;;;;14.85;9.52;;;332.90;2329.60;;;;;;4847601;29;20072;-85
2021/06/04 02:38:40;;;;;;;16.45;10.60;;;332.80;2329.60;;;;;;4847009;29;20056;-82
2021/06/04 02:41:23;;;;;;;14.85;10.00;;;308.10;2304.00;;;;;;4845433;29;20132;-82
2021/06/04 02:43:54;;;;;;;15.45;9.43;;;308.00;2304.00;;;;;;4833288;29;20049;-85
2021/06/04 02:46:53;;;;;;;16.60;11.35;;;308.00;2304.00;;;;;;4830501;29;20042;-84
2021/06/04 02:49:21;;;;;;;14.27;9.25;;;308.00;2304.00;;;;;;4829363;29;20045;-84
2021/06/04 02:51:57;;;;;;;17.58;9.82;;;307.90;2304.00;;;;;;4830726;29;20050;-85
2021/06/04 02:54:28;;;;;;;11.23;8.68;;;307.80;2304.00;;;;;;4837463;29;20041;-81
2021/06/04 02:57:01;;;;;;;12.60;9.00;;;307.80;2304.00;;;;;;4839832;29;20113;-85
2021/06/04 02:59:31;;;;;;;;;;;307.70;2304.00;;;;;;4835254;29;20065;-85
2021/06/04 03:02:30;;;;;;;14.70;9.50;;;307.70;2304.00;;;;;;4829197;29;19916;-85
2021/06/04 03:05:07;;;;;;;12.15;10.23;;;307.60;2304.00;;;;;;4775320;30;20508;-80
2021/06/04 03:07:37;;;;;;;9.90;8.73;;;307.60;2304.00;;;;;;4774623;30;20070;-80
2021/06/04 03:10:25;;;;;;;10.48;9.00;;;307.60;2304.00;;;;;;4808628;29;20066;-82
2021/06/04 03:12:51;;;;;;;12.07;8.45;;;307.60;2304.00;;;;;;4822107;29;20107;-85
2021/06/04 03:15:22;;;;;;;14.48;9.82;;;307.60;2304.00;;;;;;4819753;29;20042;-77
2021/06/04 03:17:48;;;;;;;12.60;10.25;;;307.60;2304.00;;;;;;4819291;29;20065;-85
2021/06/04 03:20:21;;;;;;;12.73;10.57;;;307.80;2304.00;;;;;;4811654;29;20481;-84
2021/06/04 03:22:47;;;;;;;13.15;9.60;;;307.50;2304.00;;;;;;4815794;29;20053;-78
2021/06/04 03:25:20;;;;;;;13.77;10.60;;;307.60;2304.00;;;;;;4827208;29;20410;-78
2021/06/04 03:27:47;;;;;;;12.20;10.23;;;307.60;2304.00;;;;;;4827735;29;20038;-78
2021/06/04 03:30:14;;;;;;;14.57;10.45;;;307.60;2304.00;;;;;;4831529;29;20045;-78
2021/06/04 03:32:40;;;;;;;14.63;11.30;;;307.60;2304.00;;;;;;4830675;29;20038;-86
2021/06/04 03:35:07;;;;;;;13.80;11.02;;;307.60;2304.00;;;;;;4814156;29;20034;-84
2021/06/04 03:37:35;;;;;;;15.85;10.80;;;307.60;2304.00;;;;;;4827095;29;20284;-84
2021/06/04 03:40:05;;;;;;;15.27;9.90;;;307.70;2304.00;;;;;;4828465;29;20042;-84
2021/06/04 03:42:31;;;;;;;23.70;11.13;;;307.60;2304.00;;;;;;4863316;29;20038;-83
2021/06/04 03:44:57;;;;;;;31.02;12.25;;;307.60;2304.00;;;;;;4832297;29;20038;-83
2021/06/04 03:47:23;;;;;;;22.05;11.95;;;307.60;2304.00;;;;;;4834667;29;20363;-82
2021/06/04 03:49:49;;;;;;;14.80;10.63;;;307.60;2304.00;;;;;;4835165;29;20034;-82
2021/06/04 03:52:22;;;;;;;17.77;11.35;;;307.60;2304.00;;;;;;4835550;29;20080;-83
2021/06/04 03:54:53;;;;;;;30.63;11.32;;;307.60;2304.00;;;;;;4833306;29;20045;-82
2021/06/04 03:57:23;;;;;;;21.02;12.02;;;307.50;2304.00;;;;;;4830171;29;20078;-81
2021/06/04 03:59:49;;;;;;;16.83;10.75;;;307.60;2304.00;;;;;;4828775;29;20130;-83
2021/06/04 04:02:19;;;;;;;17.10;11.10;;;307.70;2304.00;;;;;;4828473;29;20038;-85
2021/06/04 04:04:45;;;;;;;18.58;11.48;;;307.60;2304.00;;;;;;4814005;29;20114;-83
2021/06/04 04:07:11;;;;;;;16.92;11.10;;;307.70;2304.00;;;;;;4828937;29;20137;-82
2021/06/04 04:09:39;;;;;;;16.67;11.23;;;307.70;2304.00;;;;;;4842441;29;20038;-83
2021/06/04 04:12:05;;;;;;;23.52;11.50;;;307.80;2304.00;;;;;;4870808;29;20125;-81
2021/06/04 04:14:31;;;;;;;24.38;12.20;;;307.70;2304.00;;;;;;4852207;29;20109;-80
2021/06/04 04:16:57;;;;;;;21.23;12.30;;;307.80;2304.00;;;;;;4853861;29;20065;-84
2021/06/04 04:19:24;;;;;;;20.98;12.75;;;307.80;2304.00;;;;;;4836032;29;20137;-84
2021/06/04 04:21:54;;;;;;;22.50;13.95;;;307.80;2304.00;;;;;;4829646;29;20034;-84
2021/06/04 04:24:24;;;;;;;15.98;11.70;;;307.90;2304.00;;;;;;4829175;29;20038;-84
2021/06/04 04:26:50;;;;;;;16.50;11.65;;;307.90;2304.00;;;;;;4830036;29;20038;-85
2021/06/04 04:29:16;;;;;;;20.25;12.10;;;307.90;2304.00;;;;;;4829069;29;20105;-85
2021/06/04 04:31:48;;;;;;;18.02;11.38;;;307.90;2304.00;;;;;;4845646;29;20034;-84
2021/06/04 04:34:14;;;;;;;20.00;11.65;;;308.00;2304.00;;;;;;4844436;29;20053;-77
2021/06/04 04:36:47;;;;;;;25.00;11.40;;;308.00;2304.00;;;;;;4827771;29;20046;-77
2021/06/04 04:39:28;;;;;;;17.35;11.65;;;308.10;2304.00;;;;;;4828861;29;20141;-80
2021/06/04 04:41:54;;;;;;;18.85;11.52;;;332.80;2329.60;;;;;;4839563;29;20045;-83
2021/06/04 04:44:23;;;;;;;19.83;11.25;;;332.80;2329.60;;;;;;4849839;29;20048;-86
2021/06/04 04:46:49;;;;;;;21.73;11.60;;;332.80;2329.60;;;;;;4850022;29;20128;-85
2021/06/04 04:49:15;;;;;;;25.20;13.70;;;332.90;2329.60;;;;;;4850517;29;20076;-83
2021/06/04 04:51:41;;;;;;;26.65;14.43;;;332.90;2329.60;;;;;;4849644;29;20397;-84
2021/06/04 04:54:08;;;;;;;28.20;16.52;;;332.90;2329.60;;;;;;4866468;29;20077;-84
2021/06/04 04:56:34;;;;;;;30.55;16.65;;;332.90;2329.60;;;;;;4849508;29;20036;-78
2021/06/04 04:59:00;;;;;;;27.75;17.20;;;333.00;2329.60;;;;;;4849473;29;20073;-86
2021/06/04 05:01:26;;;;;;;31.50;19.75;;;333.10;2329.60;;;;;;4849421;29;20040;-83
2021/06/04 05:03:52;;;;;;;29.70;19.05;;;333.20;2329.60;;;;;;4849408;29;20105;-83
2021/06/04 05:06:18;;;;;;;22.75;15.27;;;333.30;2329.60;;;;;;4850289;29;20044;-84
2021/06/04 05:08:46;;;;;;;27.80;17.27;;;333.50;2329.60;;;;;;4847953;29;20049;-85
2021/06/04 05:11:13;;;;;;;23.63;14.48;;;358.40;2304.00;;;;;;4838831;29;20133;-83
2021/06/04 05:13:39;;;;;;;22.42;14.68;;;358.60;2252.80;;;;;;4841656;29;20422;-79
2021/06/04 05:16:05;;;;;;;22.75;14.25;;;358.80;2252.80;;;;;;4833392;29;20057;-77
2021/06/04 05:18:33;;;;;;;21.98;13.43;;;358.90;2227.20;;;;;;4840546;29;20053;-81
2021/06/04 05:20:59;;;;;;;22.90;13.32;;;358.90;2227.20;;;;;;4843998;29;20064;-78
2021/06/04 05:23:25;;;;;;;18.73;13.20;;;358.80;2227.20;;;;;;4838957;29;20063;-83
2021/06/04 05:25:52;;;;;;;20.48;11.82;;;358.80;2252.80;;;;;;4836578;29;20048;-82
2021/06/04 05:28:23;;;;;;;20.55;12.80;;;358.80;2227.20;;;;;;4846352;29;20517;-85
2021/06/04 05:30:51;;;;;;;19.73;12.13;;;358.80;2252.80;;;;;;4851591;29;20069;-83
2021/06/04 05:33:21;;;;;;;18.25;11.65;;;358.80;2252.80;;;;;;4849679;29;20050;-85
2021/06/04 05:35:47;;;;;;;18.00;11.85;;;358.80;2227.20;;;;;;4852629;29;20065;-84
2021/06/04 05:38:13;;;;;;;24.38;11.95;;;358.90;2227.20;;;;;;4852723;29;20041;-84
2021/06/04 05:40:43;;;;;;;17.17;11.35;;;358.80;2227.20;;;;;;4858923;29;20036;-82
2021/06/04 05:43:14;;;;;;;17.90;11.15;;;359.00;2201.60;;;;;;4865215;29;20071;-78
2021/06/04 05:45:43;;;;;;;21.92;10.05;;;359.00;2201.60;;;;;;4865418;29;20038;-82
2021/06/04 05:48:10;;;;;;;19.50;10.60;;;359.20;2176.00;;;;;;4879818;29;20038;-79
2021/06/04 05:50:39;;;;;;;15.82;10.35;;;359.30;2150.40;;;;;;4879837;29;20047;-78
2021/06/04 05:53:08;;;;;;;14.02;11.02;;;359.30;2150.40;;;;;;4864001;29;20041;-81
2021/06/04 05:55:35;;;;;;;17.13;10.95;;;384.00;2150.40;;;;;;4881694;29;20118;-77
2021/06/04 05:58:03;;;;;;;17.17;10.85;;;384.00;2124.80;;;;;;4866924;29;20085;-81
2021/06/04 06:00:37;;;;;;;19.23;12.23;;;384.10;2124.80;;;;;;4851716;29;20054;-76
2021/06/04 06:03:05;;;;;;;19.95;10.30;;;384.20;2124.80;;;;;;4848939;29;20037;-78
2021/06/04 06:05:31;;;;;;;15.30;10.32;;;384.20;2099.20;;;;;;4848033;29;20098;-78
2021/06/04 06:07:57;;;;;;;19.52;11.18;;;384.40;2073.60;;;;;;4849075;29;20501;-83
2021/06/04 06:10:23;;;;;;;18.52;11.30;;;384.50;2073.60;;;;;;4847729;29;20044;-83
2021/06/04 06:12:51;;;;;;;14.68;10.73;;;384.60;2073.60;;;;;;4849790;29;20102;-84
2021/06/04 06:15:18;;;;;;;18.15;11.43;;;384.80;2099.20;;;;;;4848478;29;20232;-77
2021/06/04 06:17:44;;;;;;;19.73;10.60;;;384.90;2073.60;;;;;;4848649;29;20049;-77
2021/06/04 06:20:14;;;;;;;16.55;10.52;;;409.80;2099.20;;;;;;4849265;29;20094;-82
2021/06/04 06:22:41;;;;;;;15.95;10.85;;;409.80;2022.40;;;;;;4848518;29;20029;-81
2021/06/04 06:25:10;;;;;;;15.32;10.43;;;409.90;2022.40;;;;;;4848782;29;20089;-85
2021/06/04 06:27:36;;;;;;;23.98;10.88;;;410.10;2048.00;;;;;;4848121;29;20094;-79
2021/06/04 06:30:05;;;;;;;19.27;10.65;;;410.30;1996.80;;;;;;4848103;29;20030;-82
2021/06/04 06:32:31;;;;;;;16.58;10.10;;;410.40;1971.20;;;;;;4847956;29;20487;-84
2021/06/04 06:34:57;;;;;;;17.40;10.95;;;435.20;1945.60;;;;;;4847929;29;20040;-84
2021/06/04 06:37:23;;;;;;;19.92;11.85;;;435.30;1945.60;;;;;;4849324;29;20133;-84
2021/06/04 06:39:49;;;;;;;18.70;10.80;;;435.50;1945.60;;;;;;4847521;29;20050;-83
2021/06/04 06:42:15;;;;;;;17.92;11.07;;;435.60;1920.00;;;;;;4878477;29;20029;-79
2021/06/04 06:44:41;;;;;;;21.60;10.95;;;435.70;1920.00;;;;;;4847790;29;20439;-82
2021/06/04 06:47:07;;;;;;;20.45;12.13;;;435.90;1894.40;;;;;;4850915;29;20033;-80
2021/06/04 06:49:34;;;;;;;17.52;10.70;;;436.00;1843.20;;;;;;4852317;29;20037;-85
2021/06/04 06:51:59;;;;;;;16.25;9.57;;;460.80;1868.80;;;;;;4851983;29;20033;-82
2021/06/04 06:54:31;;;;;;;15.43;10.45;;;460.90;1817.60;;;;;;4848202;29;20438;-83
2021/06/04 06:56:58;;;;;;;13.45;9.70;;;461.00;1792.00;;;;;;4849297;29;20030;-86
2021/06/04 06:59:26;;;;;;;21.38;10.27;;;461.20;1792.00;;;;;;4849466;29;20065;-77
2021/06/04 07:01:51;;;;;;;22.27;10.35;;;461.30;1817.60;;;;;;4847547;29;20041;-84
2021/06/04 07:04:18;;;;;;;17.25;10.18;;;461.30;1792.00;;;;;;4848728;29;20041;-86
2021/06/04 07:06:44;;;;;;;17.58;9.55;;;461.40;1792.00;;;;;;4847019;29;20041;-85
2021/06/04 07:09:14;;;;;;;16.75;9.18;;;461.60;1792.00;;;;;;4849812;29;20403;-85
2021/06/04 07:11:44;;;;;;;16.23;10.75;;;461.60;1817.60;;;;;;4849189;29;20061;-85
2021/06/04 07:14:11;;;;;;;18.23;9.82;;;486.40;1817.60;;;;;;4850006;29;20041;-85
2021/06/04 07:16:38;;;;;;;22.95;11.88;;;486.60;1766.40;;;;;;4850180;29;20056;-84
2021/06/04 07:19:06;;;;;;;20.70;9.68;;;486.60;1792.00;;;;;;4857266;29;20053;-83
2021/06/04 07:21:31;;;;;;;17.52;9.77;;;486.70;1766.40;;;;;;4866353;29;20045;-79
2021/06/04 07:23:58;;;;;;;18.63;10.55;;;486.80;1766.40;;;;;;4865532;29;20032;-80
2021/06/04 07:26:24;;;;;;;18.00;10.52;;;487.00;1740.80;;;;;;4849829;29;20109;-81
2021/06/04 07:28:50;;;;;;;23.60;11.55;;;487.20;1740.80;;;;;;4843859;29;20057;-84
2021/06/04 07:31:18;;;;;;;21.02;11.15;;;512.00;1689.60;;;;;;4845289;29;20026;-80
2021/06/04 07:33:48;;;;;;;17.75;9.10;;;512.20;1689.60;;;;;;4845766;29;20049;-78
2021/06/04 07:36:38;;;;;;;21.80;9.80;;;512.40;1689.60;;;;;;4846404;29;20092;-83
2021/06/04 07:39:07;;;;;;;15.40;8.65;;;512.60;1587.20;;;;;;4852770;29;20041;-79
2021/06/04 07:41:34;;;;;;;15.82;9.25;;;512.70;1587.20;;;;;;4830333;29;20034;-78
2021/06/04 07:44:01;;;;;;;19.05;8.50;;;512.70;1536.00;;;;;;4830014;29;20487;-82
2021/06/04 07:46:27;;;;;;;17.88;10.20;;;512.90;1536.00;;;;;;4831014;29;20072;-85
2021/06/04 07:48:54;;;;;;;16.77;8.93;;;537.70;1536.00;;;;;;4829417;29;20045;-79
2021/06/04 07:51:27;;;;;;;20.27;9.38;;;538.00;1536.00;;;;;;4846389;29;20033;-79
2021/06/04 07:53:54;;;;;;;15.23;7.63;;;538.40;1561.60;;;;;;4847840;29;20170;-78
2021/06/04 07:56:22;;;;;;;14.65;7.72;;;563.30;1510.40;;;;;;4846781;29;20033;-77
2021/06/04 07:58:48;;;;;;;10.70;7.90;;;563.70;1484.80;;;;;;4846309;29;20053;-85
2021/06/04 08:01:16;;;;;;;13.60;8.07;;;564.10;1433.60;;;;;;4846880;29;20397;-86
2021/06/04 08:03:44;;;;;;;13.38;7.50;;;588.90;1408.00;;;;;;4846919;29;20063;-86
2021/06/04 08:06:10;;;;;;;10.80;7.00;;;589.10;1382.40;;;;;;4846579;29;20550;-85
2021/06/04 08:08:37;;;;;;;14.07;6.88;;;588.80;1382.40;;;;;;4846025;29;20071;-79
2021/06/04 08:11:07;;;;;;;11.90;7.05;;;589.00;1382.40;;;;;;4850654;29;20037;-80
2021/06/04 08:13:33;;;;;;;13.40;6.63;;;588.90;1356.80;;;;;;4849929;29;20048;-79
2021/06/04 08:16:05;;;;;;;11.07;6.53;;;589.00;1382.40;;;;;;4846480;29;20041;-79
2021/06/04 08:18:33;;;;;;;11.60;6.25;;;589.20;1382.40;;;;;;4847469;29;20525;-81
2021/06/04 08:20:59;;;;;;;14.27;5.65;;;589.30;1356.80;;;;;;4847931;29;20041;-85
2021/06/04 08:23:34;;;;;;;8.80;5.75;;;589.50;1280.00;;;;;;4847702;29;20034;-78
2021/06/04 08:26:00;;;;;;;12.02;5.65;;;589.40;1305.60;;;;;;4845863;29;20038;-85
2021/06/04 08:28:28;;;;;;;20.90;7.03;;;589.60;1280.00;;;;;;4845771;29;20044;-87
2021/06/04 08:30:54;;;;;;;9.15;6.80;;;589.70;1280.00;;;;;;4844125;29;20045;-78
2021/06/04 08:33:27;;;;;;;11.20;6.13;;;589.60;1305.60;;;;;;4834336;29;20098;-86
2021/06/04 08:35:53;;;;;;;12.93;5.80;;;614.40;1280.00;;;;;;4829800;29;20049;-80
2021/06/04 08:38:19;;;;;;;10.15;5.53;;;614.40;1280.00;;;;;;4864514;29;20085;-83
2021/06/04 08:40:46;;;;;;;8.93;4.85;;;614.50;1254.40;;;;;;4864371;29;20041;-80
2021/06/04 08:43:26;;;;;;;7.90;5.20;;;614.70;1228.80;;;;;;4880664;29;20065;-81
2021/06/04 08:46:46;;;;;;;8.73;5.72;;;589.70;1228.80;;;;;;4851636;29;20041;-83
2021/06/04 08:49:38;;;;;;;9.98;5.85;;;614.60;1280.00;;;;;;4774677;30;20043;-86
2021/06/04 08:52:24;;;;;;;7.82;4.95;;;614.60;1228.80;;;;;;4779492;30;20134;-85
2021/06/04 08:55:13;;;;;;;10.35;4.85;;;614.80;1228.80;;;;;;4774191;30;20062;-81
2021/06/04 08:57:52;;;;;;;10.05;5.03;;;615.00;1203.20;;;;;;4777691;30;20047;-78
2021/06/04 09:00:31;;;;;;;9.23;4.20;;;615.30;1177.60;;;;;;4772446;30;20104;-80
2021/06/04 09:03:04;;;;;;;5.80;3.88;;;640.00;1177.60;;;;;;4781843;30;20039;-82
2021/06/04 09:05:38;;;;;;;12.52;5.13;;;640.20;1203.20;;;;;;4761955;30;20143;-83
2021/06/04 09:08:09;;;;;;;6.05;4.57;;;640.60;1126.40;;;;;;4796211;30;20400;-78
2021/06/04 09:10:52;;;;;;;10.95;5.50;;;665.60;1177.60;;;;;;4773013;30;20036;-78
2021/06/04 09:13:41;;;;;;;;;;;666.20;1126.40;;;;;;4773054;30;20063;-89
2021/06/04 09:16:43;;;;;;;5.80;4.35;;;691.40;1100.80;;;;;;4793623;30;19978;-77
2021/06/04 09:19:27;;;;;;;6.40;4.60;;;691.80;1075.20;;;;;;4781821;30;20055;-78
2021/06/04 09:21:54;;;;;;;7.20;3.92;;;692.10;1049.60;;;;;;4780400;30;20417;-79
2021/06/04 09:24:28;;;;;;;7.78;4.47;;;716.80;1024.00;;;;;;4825903;29;20037;-77
2021/06/04 09:26:53;;;;;;;7.65;4.15;;;717.00;1024.00;;;;;;4864950;29;20042;-76
2021/06/04 09:29:41;;;;;;;6.72;4.05;;;717.10;998.40;;;;;;4856524;29;20054;-77
2021/06/04 09:32:20;;;;;;;6.20;3.97;;;717.40;998.40;;;;;;4848933;29;20049;-79
2021/06/04 09:34:47;;;;;;;13.23;4.97;;;717.50;998.40;;;;;;4854571;29;20061;-86
2021/06/04 09:37:21;;;;;;;4.00;3.38;;;717.40;972.80;;;;;;4841493;29;20125;-84
2021/06/04 09:40:12;;;;;;;6.28;3.78;;;717.30;972.80;;;;;;4848454;29;20054;-83
2021/06/04 09:42:59;;;;;;;5.90;3.30;;;717.40;972.80;;;;;;4775132;30;20046;-82
2021/06/04 09:45:52;;;;;;;5.35;3.47;;;717.40;947.20;;;;;;4768743;30;20093;-82
2021/06/04 09:48:57;;;;;;;6.05;3.00;;;717.70;947.20;;;;;;4784973;30;20043;-81
2021/06/04 09:51:27;;;;;;;5.28;3.45;;;717.70;972.80;;;;;;4744715;30;20044;-82
2021/06/04 09:53:54;;;;;;;5.43;3.78;;;717.50;972.80;;;;;;4748351;30;20106;-81
2021/06/04 09:56:30;;;;;;;6.30;3.88;;;742.60;947.20;;;;;;4739498;30;20521;-81
2021/06/04 09:58:58;;;;;;;5.85;2.67;;;743.30;921.60;;;;;;4739200;30;20044;-83
2021/06/04 10:01:42;;;;;;;4.88;3.15;;;768.00;870.40;;;;;;4734325;30;20179;-81
2021/06/04 10:04:32;;;;;;;4.68;3.38;;;768.60;870.40;;;;;;4744198;30;20036;-83
2021/06/04 10:07:26;;;;;;;5.80;3.85;;;768.90;819.20;;;;;;4730402;30;20564;-82
2021/06/04 10:09:56;;;;;;;7.22;3.20;;;819.30;844.80;;;;;;4731725;30;20045;-82
2021/06/04 10:12:39;;;;;;;4.88;3.13;;;819.60;793.60;;;;;;4733034;30;20078;-77
2021/06/04 10:15:37;;;;;;;3.15;2.85;;;870.50;716.80;;;;;;4753341;30;20516;-80
2021/06/04 10:18:24;;;;;;;9.05;4.05;;;948.10;563.20;;;;;;4754315;30;20177;-82
2021/06/04 10:20:52;;;;;;;5.20;3.83;;;1075.50;512.00;;;;;;4805579;29;20078;-82
2021/06/04 10:23:23;;;;;;;5.57;5.07;;;1152.40;486.40;;;;;;4792879;29;20446;-84
2021/06/04 10:26:21;;;;;;;5.85;3.20;;;1229.00;460.80;;;;;;4819169;29;20041;-84
2021/06/04 10:28:53;;;;;;;4.57;3.35;;;1280.70;486.40;;;;;;4756933;30;20438;-83
2021/06/04 10:31:27;;;;;;;;;;;1280.10;486.40;;;;;;4771954;30;20043;-83
2021/06/04 10:34:02;;;;;;;4.32;3.30;;;1306.00;486.40;;;;;;4756819;30;19910;-84
2021/06/04 10:36:38;;;;;;;4.35;2.55;;;1280.50;486.40;;;;;;4756755;30;20040;-84
2021/06/04 10:39:16;;;;;;;5.72;2.65;;;1305.60;486.40;;;;;;4756831;30;20060;-83
2021/06/04 10:42:00;;;;;;;3.67;2.78;;;1229.50;460.80;;;;;;4756715;30;20035;-85
2021/06/04 10:44:56;;;;;;;5.47;3.00;;;1280.10;486.40;;;;;;4756580;30;20101;-83
2021/06/04 10:47:34;;;;;;;3.30;2.50;;;1306.50;486.40;;;;;;4771602;30;20043;-84
2021/06/04 10:50:24;;;;;;;3.53;2.60;;;1229.70;460.80;;;;;;4764299;30;20035;-82
2021/06/04 10:53:25;;;;;;;6.60;2.92;;;1101.20;460.80;;;;;;4773227;30;20337;-82
2021/06/04 10:56:11;;;;;;;3.40;2.73;;;998.90;537.60;;;;;;4773982;30;20042;-83
2021/06/04 10:58:44;;;;;;;6.78;3.20;;;947.80;588.80;;;;;;4789060;30;20088;-82
2021/06/04 11:01:18;;;;;;;4.57;2.72;;;922.00;640.00;;;;;;4773778;30;20046;-82
2021/06/04 11:04:14;;;;;;;11.20;2.97;;;896.10;640.00;;;;;;4773588;30;20869;-83
2021/06/04 11:07:05;;;;;;;6.00;2.22;;;871.00;665.60;;;;;;4797226;29;20114;-82
2021/06/04 11:10:00;;;;;;;5.70;2.65;;;896.20;640.00;;;;;;4815025;29;20040;-80
2021/06/04 11:13:10;;;;;;;4.45;2.80;;;896.60;614.40;;;;;;4794113;29;20038;-80
2021/06/04 11:16:10;;;;;;;7.85;3.20;;;871.10;691.20;;;;;;4748438;30;20047;-82
2021/06/04 11:18:50;;;;;;;6.45;3.15;;;870.80;665.60;;;;;;4757671;30;20052;-81
2021/06/04 11:21:38;;;;;;;4.78;3.70;;;871.20;640.00;;;;;;4758270;30;20059;-84
2021/06/04 11:24:10;;;;;;;6.32;2.50;;;1050.40;537.60;;;;;;4754994;29;20070;-85
2021/06/04 11:26:51;;;;;;;3.47;2.90;;;998.80;588.80;;;;;;4740509;30;20032;-86
2021/06/04 11:29:22;;;;;;;5.88;2.75;;;947.70;563.20;;;;;;4746041;30;20040;-84
2021/06/04 11:32:04;;;;;;;5.88;2.60;;;922.10;614.40;;;;;;4752936;30;20097;-84
2021/06/04 11:34:53;;;;;;;3.33;2.75;;;922.00;588.80;;;;;;4754270;30;20135;-87
2021/06/04 11:37:25;;;;;;;4.30;3.13;;;1024.40;563.20;;;;;;4755847;30;20036;-82
2021/06/04 11:39:55;;;;;;;3.77;2.60;;;1075.30;512.00;;;;;;4747616;30;20134;-85
2021/06/04 11:42:34;;;;;;;5.13;2.47;;;1024.30;512.00;;;;;;4766949;30;20048;-84
2021/06/04 11:45:01;;;;;;;3.35;2.42;;;1049.80;512.00;;;;;;4797219;29;20038;-80
2021/06/04 11:47:38;;;;;;;4.63;2.83;;;973.00;563.20;;;;;;4788470;29;20060;-86
2021/06/04 11:50:30;;;;;;;3.78;2.97;;;896.80;563.20;;;;;;4798674;29;20034;-80
2021/06/04 11:53:23;;;;;;;5.63;3.00;;;871.00;691.20;;;;;;4830346;29;20037;-78
2021/06/04 11:55:49;;;;;;;;;;;896.20;665.60;;;;;;4851048;29;20149;-86
2021/06/04 11:58:38;;;;;;;5.60;4.43;;;922.50;640.00;;;;;;4840551;29;19916;-87
2021/06/04 12:01:22;;;;;;;5.47;3.60;;;1049.80;537.60;;;;;;4841779;29;20149;-80
2021/06/04 12:04:18;;;;;;;7.13;3.70;;;1178.00;460.80;;;;;;4827603;29;20574;-84
2021/06/04 12:06:57;;;;;;;4.68;3.50;;;1178.00;460.80;;;;;;4850882;29;20045;-86
2021/06/04 12:09:32;;;;;;;7.03;3.42;;;1177.60;435.20;;;;;;4837195;29;20066;-85
2021/06/04 12:12:38;;;;;;;4.38;3.70;;;1152.50;435.20;;;;;;4839867;29;20049;-85
2021/06/04 12:15:07;;;;;;;5.03;3.25;;;1178.10;435.20;;;;;;4813792;29;20034;-85
2021/06/04 12:17:39;;;;;;;6.53;3.33;;;1203.20;435.20;;;;;;4807490;29;20119;-85
2021/06/04 12:20:28;;;;;;;3.72;3.33;;;1178.30;409.60;;;;;;4807856;29;20055;-86
2021/06/04 12:23:34;;;;;;;3.83;2.60;;;1152.60;409.60;;;;;;4791987;29;20038;-83
2021/06/04 12:26:02;;;;;;;5.53;3.03;;;1127.00;460.80;;;;;;4789273;29;20042;-85
2021/06/04 12:28:28;;;;;;;5.88;3.53;;;1049.70;512.00;;;;;;4794266;29;20030;-82
2021/06/04 12:31:02;;;;;;;7.22;3.10;;;973.20;588.80;;;;;;4803277;29;20047;-79
2021/06/04 12:33:39;;;;;;;6.07;3.85;;;947.90;588.80;;;;;;4803415;29;20055;-85
2021/06/04 12:36:50;;;;;;;7.18;4.00;;;973.70;563.20;;;;;;4801660;29;20046;-83
2021/06/04 12:39:24;;;;;;;4.18;3.78;;;1024.00;537.60;;;;;;4803671;29;20058;-84
2021/06/04 12:42:05;;;;;;;5.32;3.03;;;1100.80;512.00;;;;;;4799772;29;20039;-84
2021/06/04 12:44:31;;;;;;;5.50;4.18;;;1101.40;486.40;;;;;;4790449;29;20515;-84
2021/06/04 12:46:58;;;;;;;5.53;3.42;;;1126.70;486.40;;;;;;4805839;29;20071;-83
2021/06/04 12:49:24;;;;;;;4.00;3.60;;;1127.00;460.80;;;;;;4834201;29;20563;-85